Beverly, Kansas
Current Conditions -  °F | °C
As of 11:53 PM on Friday 28 Nov 2014 (Local Time) from KSLN Reporting Station
Clear Clear  
Wind Chill: 41°   Ceiling: Unl
Heat Index: 47°   Visibility: 10mi
Dew Point: 36°   Wind: 14mph
Humidity: 66%   Direction: 200°SSW
Pressure: 29.69"   Gusts: NA
Location:  39.01°N, 97.98°W
Report Text: KSLN 290553Z AUTO 20012KT 10SM CLR 08/02 A2969 RMK AO2 SLP053 T00830022 10128 20083 402110011 58013
Loading
Personal Weather Stations






























Interactive Weather Map New forecast layout! Learn more

10-Day Weather Forecast

Advertisements
Track Severe Weather on mobile